Airfield :
LOGIN :

Register | Disclaimer

   EN    FR    IT 

 










Legend :    VFR   Marginal VFR   IFR   Intensive IFR   Very Intensive IFR
Visi :
Ceiling :
>= 8 km
>= 3000ft
5 to 8 km
1000 to 3000 ft
1500m to 5 km
500 to 1000 ft
800 to 1500m
200 to 500 ft
< 800m
< 200 ft
Symbols :   Thunderstorms  Fog  Heavy snow  Heavy precipitations  Wind > 20 kt
SIGMETs :     Misc.  Thunderstorms  Icing  Turbulence  Mountain Waves  Volcanic Ashes







- Airport Elevation : 3 ft
- IATA code : DHR


EHKD - Den Helder De Kooy

CURRENT METAR :
  • 191225Z AUTO 08005KT 040V140 9999 BKN048 BKN390 16/09 Q1031 BLU 07005KT 9999 SCT025 BKN045

EXPIRED METARs :
  • 191155Z AUTO 08006KT 050V120 9999 SCT027 SCT032 BKN041 15/09 Q1031 BLU 07005KT 9999 SCT025 BKN045
  • 191125Z AUTO 08004KT 040V140 9999 SCT025 SCT029 BKN051 15/09 Q1031 BLU 04003KT 9999 SCT025 BKN035 TEMPO 4500 -RADZ SCT017 BKN025
  • 191055Z AUTO 07004KT 030V110 9999 FEW046 OVC380 15/10 Q1031 BLU 04003KT 9999 SCT025 BKN035 TEMPO 4500 -RADZ SCT017 BKN025
  • 191036Z AUTO 07004KT 030V130 9999 FEW023 SCT027 BKN031 15/09 Q1031 BLU 04003KT 9999 SCT025 BKN035 TEMPO 4500 -RADZ SCT017 BKN025
  • 191031Z AUTO 07004KT 030V100 9999 SCT023 BKN028 OVC031 14/09 Q1031 WHT 04003KT 9999 SCT025 BKN035 TEMPO 4500 -RADZ SCT017 BKN025
  • 191019Z AUTO 08004KT 020V140 9999 FEW023 SCT027 BKN035 14/09 Q1031 BLU 02003KT 9999 SCT040 BKN045 TEMPO 4500 -RADZ SCT017 BKN025
  • 191006Z AUTO 10004KT 060V130 9999 BKN023 OVC027 14/10 Q1031 WHT 02003KT 9999 SCT040 BKN045 TEMPO 4500 -RADZ SCT017 BKN025
  • 191002Z AUTO 10004KT 050V130 9999 SCT024 BKN028 OVC032 14/10 Q1031 WHT 02003KT 9999 SCT040 BKN045 TEMPO 4500 -RADZ SCT017 BKN025

TAF TAF EHKD
Valid from the 19 at 09:00 until the 19 at 21:00 UTC


190837Z 1909/1921 02005KT 9999 SCT025 BKN030
PROB30
TEMPO 1909/1912 4500 -RADZ SCT018 BKN025
BECMG 1910/1913 31004KT
BECMG 1918/1920 VRB03KT
No reported NOTAMs for that airfield.



MET'MAP, your aeronautical weather chart ! - Copyright ORBIFLY December 2007 - Disclaimer

ORBIFLY MET'MAP TEAM :

Programming & Development : Alexandra Zaïnal
Concept & Development : Baudouin d'Aumeries
Co-Development & Prog : Marc-Olivier Méhu
Technical & hardware support : Manuel Goepfert

Contact : metmap@orbifly.com




SOURCES & CREDITS :

   NOAA